sensor_id;sensor_type;location;lat;lon;timestamp;pressure;altitude;pressure_sealevel;temperature;humidity
27202;BME280;14717;46.924;15.474;2023-03-04T00:00:25;98083.56;;;2.63;97.73
27202;BME280;14717;46.924;15.474;2023-03-04T00:02:51;98080.59;;;2.65;97.54
27202;BME280;14717;46.924;15.474;2023-03-04T00:05:16;98092.69;;;2.46;98.02
27202;BME280;14717;46.924;15.474;2023-03-04T00:07:41;98092.91;;;2.33;98.33
27202;BME280;14717;46.924;15.474;2023-03-04T00:10:07;98087.09;;;2.30;99.42
27202;BME280;14717;46.924;15.474;2023-03-04T00:12:33;98082.13;;;2.27;98.62
27202;BME280;14717;46.924;15.474;2023-03-04T00:14:58;98086.97;;;2.25;98.27
27202;BME280;14717;46.924;15.474;2023-03-04T00:17:23;98079.91;;;2.35;98.16
27202;BME280;14717;46.924;15.474;2023-03-04T00:19:49;98083.91;;;2.44;97.78
27202;BME280;14717;46.924;15.474;2023-03-04T00:22:14;98085.81;;;2.44;97.22
27202;BME280;14717;46.924;15.474;2023-03-04T00:24:40;98080.59;;;2.42;97.51
27202;BME280;14717;46.924;15.474;2023-03-04T00:27:05;98077.06;;;2.30;98.28
27202;BME280;14717;46.924;15.474;2023-03-04T00:29:30;98083.63;;;2.11;97.17
27202;BME280;14717;46.924;15.474;2023-03-04T00:31:56;98086.34;;;2.00;99.36
27202;BME280;14717;46.924;15.474;2023-03-04T00:34:21;98087.66;;;1.98;99.19
27202;BME280;14717;46.924;15.474;2023-03-04T00:36:47;98083.19;;;2.14;99.01
27202;BME280;14717;46.924;15.474;2023-03-04T00:39:12;98077.50;;;2.16;97.93
27202;BME280;14717;46.924;15.474;2023-03-04T00:41:38;98075.25;;;2.24;96.89
27202;BME280;14717;46.924;15.474;2023-03-04T00:44:04;98076.56;;;2.11;96.90
27202;BME280;14717;46.924;15.474;2023-03-04T00:46:29;98080.63;;;1.90;97.15
27202;BME280;14717;46.924;15.474;2023-03-04T00:48:54;98070.84;;;2.01;97.14
27202;BME280;14717;46.924;15.474;2023-03-04T00:51:20;98072.38;;;1.97;96.33
27202;BME280;14717;46.924;15.474;2023-03-04T00:53:45;98069.84;;;1.84;96.80
27202;BME280;14717;46.924;15.474;2023-03-04T00:56:11;98067.94;;;1.73;96.75
27202;BME280;14717;46.924;15.474;2023-03-04T00:58:37;98070.84;;;1.60;97.57
27202;BME280;14717;46.924;15.474;2023-03-04T01:01:03;98070.06;;;1.71;98.15
27202;BME280;14717;46.924;15.474;2023-03-04T01:03:29;98073.84;;;1.70;96.20
27202;BME280;14717;46.924;15.474;2023-03-04T01:05:56;98070.81;;;1.49;97.04
27202;BME280;14717;46.924;15.474;2023-03-04T01:08:22;98064.22;;;1.56;97.76
27202;BME280;14717;46.924;15.474;2023-03-04T01:10:47;98062.38;;;1.68;97.74
27202;BME280;14717;46.924;15.474;2023-03-04T01:13:13;98061.09;;;1.82;97.66
27202;BME280;14717;46.924;15.474;2023-03-04T01:15:38;98053.63;;;1.89;96.53
27202;BME280;14717;46.924;15.474;2023-03-04T01:18:03;98050.44;;;1.92;95.78
27202;BME280;14717;46.924;15.474;2023-03-04T01:20:29;98060.34;;;1.64;96.09
27202;BME280;14717;46.924;15.474;2023-03-04T01:22:54;98043.13;;;1.23;96.92
27202;BME280;14717;46.924;15.474;2023-03-04T01:25:19;98041.44;;;1.39;98.33
27202;BME280;14717;46.924;15.474;2023-03-04T01:27:45;98034.28;;;1.56;98.14
27202;BME280;14717;46.924;15.474;2023-03-04T01:30:11;98025.75;;;1.64;96.56
27202;BME280;14717;46.924;15.474;2023-03-04T01:32:36;98031.22;;;1.64;96.40
27202;BME280;14717;46.924;15.474;2023-03-04T01:35:02;98032.19;;;1.69;95.88
27202;BME280;14717;46.924;15.474;2023-03-04T01:37:27;98045.56;;;1.71;94.91
27202;BME280;14717;46.924;15.474;2023-03-04T01:39:52;98036.19;;;1.67;96.41
27202;BME280;14717;46.924;15.474;2023-03-04T01:42:22;98037.72;;;1.63;96.08
27202;BME280;14717;46.924;15.474;2023-03-04T01:44:48;98037.25;;;1.55;96.46
27202;BME280;14717;46.924;15.474;2023-03-04T01:47:15;98031.22;;;1.64;96.58
27202;BME280;14717;46.924;15.474;2023-03-04T01:49:41;98031.47;;;1.74;96.18
27202;BME280;14717;46.924;15.474;2023-03-04T01:52:11;98026.19;;;1.38;96.56
27202;BME280;14717;46.924;15.474;2023-03-04T01:54:38;98026.91;;;1.16;97.18
27202;BME280;14717;46.924;15.474;2023-03-04T01:57:18;98020.00;;;1.31;97.57
27202;BME280;14717;46.924;15.474;2023-03-04T01:59:44;98024.16;;;1.34;96.91
27202;BME280;14717;46.924;15.474;2023-03-04T02:02:11;98019.31;;;1.36;96.77
27202;BME280;14717;46.924;15.474;2023-03-04T02:04:37;98027.28;;;1.20;96.63
27202;BME280;14717;46.924;15.474;2023-03-04T02:07:03;98022.28;;;1.05;96.86
27202;BME280;14717;46.924;15.474;2023-03-04T02:09:29;98022.28;;;0.87;98.22
27202;BME280;14717;46.924;15.474;2023-03-04T02:11:56;98016.47;;;0.84;98.63
27202;BME280;14717;46.924;15.474;2023-03-04T02:14:22;98018.78;;;0.98;98.19
27202;BME280;14717;46.924;15.474;2023-03-04T02:16:48;98017.38;;;0.96;98.75
27202;BME280;14717;46.924;15.474;2023-03-04T02:19:17;98008.13;;;0.97;98.41
27202;BME280;14717;46.924;15.474;2023-03-04T02:21:44;98006.66;;;0.83;97.52
27202;BME280;14717;46.924;15.474;2023-03-04T02:26:48;97998.94;;;0.98;97.09
27202;BME280;14717;46.924;15.474;2023-03-04T02:29:15;98002.69;;;0.68;97.78
27202;BME280;14717;46.924;15.474;2023-03-04T02:31:43;98003.88;;;0.54;97.57
27202;BME280;14717;46.924;15.474;2023-03-04T02:34:31;97996.25;;;0.62;97.79
27202;BME280;14717;46.924;15.474;2023-03-04T02:36:57;97991.38;;;0.71;97.44
27202;BME280;14717;46.924;15.474;2023-03-04T02:39:30;97991.78;;;0.85;97.34
27202;BME280;14717;46.924;15.474;2023-03-04T02:41:57;97983.09;;;0.77;96.30
27202;BME280;14717;46.924;15.474;2023-03-04T02:44:25;97980.22;;;0.90;96.97
27202;BME280;14717;46.924;15.474;2023-03-04T02:46:51;97977.63;;;0.95;95.81
27202;BME280;14717;46.924;15.474;2023-03-04T02:49:18;97979.63;;;0.88;95.71
27202;BME280;14717;46.924;15.474;2023-03-04T02:51:43;97984.34;;;0.63;94.57
27202;BME280;14717;46.924;15.474;2023-03-04T02:54:16;97978.00;;;0.51;95.53
27202;BME280;14717;46.924;15.474;2023-03-04T02:56:50;97977.09;;;0.57;96.62
27202;BME280;14717;46.924;15.474;2023-03-04T02:59:17;97982.41;;;0.35;96.01
27202;BME280;14717;46.924;15.474;2023-03-04T03:01:43;97985.03;;;0.23;97.51
27202;BME280;14717;46.924;15.474;2023-03-04T03:04:09;97975.81;;;0.42;97.59
27202;BME280;14717;46.924;15.474;2023-03-04T03:06:35;97978.75;;;0.23;97.03
27202;BME280;14717;46.924;15.474;2023-03-04T03:09:00;97979.38;;;0.25;98.11
27202;BME280;14717;46.924;15.474;2023-03-04T03:11:25;97968.88;;;0.10;98.53
27202;BME280;14717;46.924;15.474;2023-03-04T03:13:51;97972.41;;;0.11;99.43
27202;BME280;14717;46.924;15.474;2023-03-04T03:16:16;97974.84;;;0.19;99.63
27202;BME280;14717;46.924;15.474;2023-03-04T03:18:41;97968.41;;;0.31;98.96
27202;BME280;14717;46.924;15.474;2023-03-04T03:21:07;97963.53;;;0.40;98.59
27202;BME280;14717;46.924;15.474;2023-03-04T03:23:33;97963.13;;;0.36;97.69
27202;BME280;14717;46.924;15.474;2023-03-04T03:25:59;97967.06;;;0.22;97.49
27202;BME280;14717;46.924;15.474;2023-03-04T03:28:25;97962.16;;;0.13;97.99
27202;BME280;14717;46.924;15.474;2023-03-04T03:30:50;97962.31;;;0.18;98.12
27202;BME280;14717;46.924;15.474;2023-03-04T03:33:16;97966.38;;;0.09;97.79
27202;BME280;14717;46.924;15.474;2023-03-04T03:35:41;97970.03;;;-0.21;97.74
27202;BME280;14717;46.924;15.474;2023-03-04T03:38:06;97972.50;;;-0.20;98.63
27202;BME280;14717;46.924;15.474;2023-03-04T03:40:33;97973.34;;;-0.19;98.25
27202;BME280;14717;46.924;15.474;2023-03-04T03:42:58;97962.13;;;-0.05;98.69
27202;BME280;14717;46.924;15.474;2023-03-04T03:45:23;97960.72;;;0.10;98.66
27202;BME280;14717;46.924;15.474;2023-03-04T03:47:49;97958.84;;;0.11;97.70
27202;BME280;14717;46.924;15.474;2023-03-04T03:50:14;97957.66;;;0.25;97.87
27202;BME280;14717;46.924;15.474;2023-03-04T03:52:40;97950.69;;;0.29;96.68
27202;BME280;14717;46.924;15.474;2023-03-04T03:55:05;97950.25;;;0.32;97.19
27202;BME280;14717;46.924;15.474;2023-03-04T03:57:31;97967.28;;;0.21;96.02
27202;BME280;14717;46.924;15.474;2023-03-04T03:59:56;97967.88;;;0.23;96.47
27202;BME280;14717;46.924;15.474;2023-03-04T04:02:22;97962.09;;;0.19;96.39
27202;BME280;14717;46.924;15.474;2023-03-04T04:04:48;97969.19;;;0.20;96.97
27202;BME280;14717;46.924;15.474;2023-03-04T04:07:13;97959.59;;;0.18;96.32
27202;BME280;14717;46.924;15.474;2023-03-04T04:09:38;97953.41;;;0.11;96.49
27202;BME280;14717;46.924;15.474;2023-03-04T04:12:07;97946.00;;;0.18;96.97
27202;BME280;14717;46.924;15.474;2023-03-04T04:14:32;97960.38;;;-0.17;95.87
27202;BME280;14717;46.924;15.474;2023-03-04T04:16:59;97960.56;;;-0.37;96.98
27202;BME280;14717;46.924;15.474;2023-03-04T04:19:24;97962.06;;;-0.41;96.98
27202;BME280;14717;46.924;15.474;2023-03-04T04:21:49;97961.00;;;-0.40;98.34
27202;BME280;14717;46.924;15.474;2023-03-04T04:24:15;97948.03;;;-0.55;97.80
27202;BME280;14717;46.924;15.474;2023-03-04T04:26:41;97950.16;;;-0.40;98.24
27202;BME280;14717;46.924;15.474;2023-03-04T04:29:07;97943.50;;;-0.19;97.78
27202;BME280;14717;46.924;15.474;2023-03-04T04:31:32;97942.97;;;-0.28;96.42
27202;BME280;14717;46.924;15.474;2023-03-04T04:33:58;97944.72;;;-0.40;95.98
27202;BME280;14717;46.924;15.474;2023-03-04T04:36:23;97943.25;;;-0.60;96.92
27202;BME280;14717;46.924;15.474;2023-03-04T04:38:48;97939.44;;;-0.52;96.72
27202;BME280;14717;46.924;15.474;2023-03-04T04:41:18;97941.38;;;-0.59;96.43
27202;BME280;14717;46.924;15.474;2023-03-04T04:43:44;97948.13;;;-0.68;97.37
27202;BME280;14717;46.924;15.474;2023-03-04T04:46:09;97946.66;;;-0.71;97.87
27202;BME280;14717;46.924;15.474;2023-03-04T04:48:35;97940.44;;;-0.71;99.19
27202;BME280;14717;46.924;15.474;2023-03-04T04:51:00;97943.41;;;-0.79;99.39
27202;BME280;14717;46.924;15.474;2023-03-04T04:53:25;97938.25;;;-0.63;98.97
27202;BME280;14717;46.924;15.474;2023-03-04T04:55:51;97941.19;;;-0.64;98.03
27202;BME280;14717;46.924;15.474;2023-03-04T04:58:16;97937.88;;;-0.66;97.19
27202;BME280;14717;46.924;15.474;2023-03-04T05:00:41;97939.38;;;-0.70;97.35
27202;BME280;14717;46.924;15.474;2023-03-04T05:03:07;97939.22;;;-0.75;97.33
27202;BME280;14717;46.924;15.474;2023-03-04T05:05:32;97941.19;;;-0.64;97.69
27202;BME280;14717;46.924;15.474;2023-03-04T05:07:57;97938.84;;;-0.79;96.16
27202;BME280;14717;46.924;15.474;2023-03-04T05:10:23;97942.53;;;-0.73;96.48
27202;BME280;14717;46.924;15.474;2023-03-04T05:12:48;97939.16;;;-0.69;96.79
27202;BME280;14717;46.924;15.474;2023-03-04T05:15:14;97932.03;;;-0.63;97.03
27202;BME280;14717;46.924;15.474;2023-03-04T05:17:39;97936.25;;;-0.67;96.35
27202;BME280;14717;46.924;15.474;2023-03-04T05:20:05;97937.19;;;-0.86;95.91
27202;BME280;14717;46.924;15.474;2023-03-04T05:22:31;97932.69;;;-0.92;97.69
27202;BME280;14717;46.924;15.474;2023-03-04T05:24:57;97936.31;;;-1.04;97.49
27202;BME280;14717;46.924;15.474;2023-03-04T05:27:22;97931.88;;;-0.99;98.60
27202;BME280;14717;46.924;15.474;2023-03-04T05:29:47;97933.97;;;-1.01;98.16
27202;BME280;14717;46.924;15.474;2023-03-04T05:32:13;97924.22;;;-1.02;98.26
27202;BME280;14717;46.924;15.474;2023-03-04T05:34:38;97923.06;;;-0.88;97.66
27202;BME280;14717;46.924;15.474;2023-03-04T05:37:03;97926.31;;;-0.80;97.97
27202;BME280;14717;46.924;15.474;2023-03-04T05:39:29;97929.81;;;-0.97;96.45
27202;BME280;14717;46.924;15.474;2023-03-04T05:41:54;97927.53;;;-1.00;97.76
27202;BME280;14717;46.924;15.474;2023-03-04T05:44:19;97924.38;;;-0.97;98.86
27202;BME280;14717;46.924;15.474;2023-03-04T05:46:45;97930.16;;;-0.87;97.98
27202;BME280;14717;46.924;15.474;2023-03-04T05:49:10;97933.13;;;-0.95;97.63
27202;BME280;14717;46.924;15.474;2023-03-04T05:51:35;97929.34;;;-0.94;97.37
27202;BME280;14717;46.924;15.474;2023-03-04T05:54:01;97930.31;;;-0.82;96.92
27202;BME280;14717;46.924;15.474;2023-03-04T05:56:26;97936.06;;;-0.72;96.60
27202;BME280;14717;46.924;15.474;2023-03-04T05:58:58;97939.50;;;-0.59;95.94
27202;BME280;14717;46.924;15.474;2023-03-04T06:01:24;97932.28;;;-0.47;95.37
27202;BME280;14717;46.924;15.474;2023-03-04T06:03:52;97932.06;;;-0.45;94.62
27202;BME280;14717;46.924;15.474;2023-03-04T06:06:17;97942.16;;;-0.52;94.84
27202;BME280;14717;46.924;15.474;2023-03-04T06:08:42;97938.09;;;-0.68;94.99
27202;BME280;14717;46.924;15.474;2023-03-04T06:11:08;97943.63;;;-0.56;95.79
27202;BME280;14717;46.924;15.474;2023-03-04T06:13:33;97948.06;;;-0.38;95.88
27202;BME280;14717;46.924;15.474;2023-03-04T06:15:59;97953.75;;;-0.21;95.35
27202;BME280;14717;46.924;15.474;2023-03-04T06:18:26;97946.91;;;-0.06;94.61
27202;BME280;14717;46.924;15.474;2023-03-04T06:20:55;97953.41;;;0.11;94.06
27202;BME280;14717;46.924;15.474;2023-03-04T06:23:21;97953.63;;;0.27;93.51
27202;BME280;14717;46.924;15.474;2023-03-04T06:25:51;97950.09;;;0.44;92.90
27202;BME280;14717;46.924;15.474;2023-03-04T06:28:16;97958.63;;;0.48;92.38
27202;BME280;14717;46.924;15.474;2023-03-04T06:30:41;97959.81;;;0.52;92.33
27202;BME280;14717;46.924;15.474;2023-03-04T06:33:07;97947.34;;;0.62;92.98
27202;BME280;14717;46.924;15.474;2023-03-04T06:35:32;97946.06;;;0.65;92.14
27202;BME280;14717;46.924;15.474;2023-03-04T06:37:57;97951.00;;;0.56;93.70
27202;BME280;14717;46.924;15.474;2023-03-04T06:40:23;97949.22;;;0.62;94.47
27202;BME280;14717;46.924;15.474;2023-03-04T06:42:48;97948.56;;;0.66;94.42
27202;BME280;14717;46.924;15.474;2023-03-04T06:45:13;97949.75;;;0.70;95.73
27202;BME280;14717;46.924;15.474;2023-03-04T06:47:39;97947.09;;;0.82;95.04
27202;BME280;14717;46.924;15.474;2023-03-04T06:50:05;97955.84;;;0.83;96.32
27202;BME280;14717;46.924;15.474;2023-03-04T06:52:30;97950.31;;;0.90;97.41
27202;BME280;14717;46.924;15.474;2023-03-04T06:54:55;97950.44;;;0.95;97.39
27202;BME280;14717;46.924;15.474;2023-03-04T06:57:21;97951.44;;;1.00;98.03
27202;BME280;14717;46.924;15.474;2023-03-04T06:59:46;97949.44;;;1.07;97.97
27202;BME280;14717;46.924;15.474;2023-03-04T07:02:12;97950.66;;;1.23;98.01
27202;BME280;14717;46.924;15.474;2023-03-04T07:04:38;97949.66;;;1.35;97.79
27202;BME280;14717;46.924;15.474;2023-03-04T07:07:03;97947.28;;;1.38;98.17
27202;BME280;14717;46.924;15.474;2023-03-04T07:09:29;97949.81;;;1.51;97.77
27202;BME280;14717;46.924;15.474;2023-03-04T07:11:54;97951.94;;;1.83;97.16
27202;BME280;14717;46.924;15.474;2023-03-04T07:14:19;97941.88;;;2.07;94.92
27202;BME280;14717;46.924;15.474;2023-03-04T07:16:45;97942.34;;;2.26;94.51
27202;BME280;14717;46.924;15.474;2023-03-04T07:19:10;97945.16;;;2.43;94.38
27202;BME280;14717;46.924;15.474;2023-03-04T07:21:35;97947.03;;;2.53;92.85
27202;BME280;14717;46.924;15.474;2023-03-04T07:24:02;97945.50;;;2.46;93.55
27202;BME280;14717;46.924;15.474;2023-03-04T07:26:27;97940.47;;;2.66;94.02
27202;BME280;14717;46.924;15.474;2023-03-04T07:28:53;97941.22;;;2.89;92.26
27202;BME280;14717;46.924;15.474;2023-03-04T07:31:30;97945.56;;;3.01;91.54
27202;BME280;14717;46.924;15.474;2023-03-04T07:33:58;97942.75;;;3.24;90.92
27202;BME280;14717;46.924;15.474;2023-03-04T07:36:24;97938.53;;;3.33;90.23
27202;BME280;14717;46.924;15.474;2023-03-04T07:38:50;97947.16;;;3.41;90.49
27202;BME280;14717;46.924;15.474;2023-03-04T07:41:16;97947.47;;;3.45;89.96
27202;BME280;14717;46.924;15.474;2023-03-04T07:43:42;97947.56;;;3.50;89.23
27202;BME280;14717;46.924;15.474;2023-03-04T07:46:09;97939.56;;;3.60;89.78
27202;BME280;14717;46.924;15.474;2023-03-04T07:48:35;97939.72;;;3.70;89.90
27202;BME280;14717;46.924;15.474;2023-03-04T07:51:14;97934.78;;;3.67;90.46
27202;BME280;14717;46.924;15.474;2023-03-04T07:53:42;97940.06;;;3.73;89.83
27202;BME280;14717;46.924;15.474;2023-03-04T07:56:12;97933.75;;;3.73;89.49
27202;BME280;14717;46.924;15.474;2023-03-04T07:58:38;97933.91;;;3.99;90.38
27202;BME280;14717;46.924;15.474;2023-03-04T08:01:11;97929.75;;;4.29;89.91
27202;BME280;14717;46.924;15.474;2023-03-04T08:03:37;97931.41;;;4.51;89.08
27202;BME280;14717;46.924;15.474;2023-03-04T08:06:04;97921.00;;;4.69;86.82
27202;BME280;14717;46.924;15.474;2023-03-04T08:08:30;97914.06;;;4.83;86.50
27202;BME280;14717;46.924;15.474;2023-03-04T08:10:55;97909.91;;;5.02;86.23
27202;BME280;14717;46.924;15.474;2023-03-04T08:13:20;97913.38;;;5.19;86.23
27202;BME280;14717;46.924;15.474;2023-03-04T08:15:46;97911.38;;;5.36;86.13
27202;BME280;14717;46.924;15.474;2023-03-04T08:18:11;97913.94;;;5.47;85.54
27202;BME280;14717;46.924;15.474;2023-03-04T08:20:40;97908.06;;;5.65;86.45
27202;BME280;14717;46.924;15.474;2023-03-04T08:23:09;97907.41;;;5.79;84.48
27202;BME280;14717;46.924;15.474;2023-03-04T08:25:38;97900.88;;;5.80;84.49
27202;BME280;14717;46.924;15.474;2023-03-04T08:28:05;97904.31;;;6.02;84.24
27202;BME280;14717;46.924;15.474;2023-03-04T08:30:30;97892.94;;;6.20;83.61
27202;BME280;14717;46.924;15.474;2023-03-04T08:32:55;97893.53;;;6.27;82.74
27202;BME280;14717;46.924;15.474;2023-03-04T08:35:21;97893.53;;;6.27;82.61
27202;BME280;14717;46.924;15.474;2023-03-04T08:37:46;97888.16;;;6.46;81.84
27202;BME280;14717;46.924;15.474;2023-03-04T08:40:12;97889.91;;;6.67;82.20
27202;BME280;14717;46.924;15.474;2023-03-04T08:42:38;97886.66;;;6.85;79.91
27202;BME280;14717;46.924;15.474;2023-03-04T08:45:04;97887.84;;;7.04;79.48
27202;BME280;14717;46.924;15.474;2023-03-04T08:47:29;97886.78;;;7.24;80.37
27202;BME280;14717;46.924;15.474;2023-03-04T08:49:54;97879.69;;;7.38;77.63
27202;BME280;14717;46.924;15.474;2023-03-04T08:52:20;97883.56;;;7.57;76.78
27202;BME280;14717;46.924;15.474;2023-03-04T08:54:46;97876.44;;;7.71;78.25
27202;BME280;14717;46.924;15.474;2023-03-04T08:57:11;97868.19;;;7.86;75.70
27202;BME280;14717;46.924;15.474;2023-03-04T08:59:37;97876.97;;;8.03;74.99
27202;BME280;14717;46.924;15.474;2023-03-04T09:02:02;97873.13;;;8.08;74.26
27202;BME280;14717;46.924;15.474;2023-03-04T09:04:27;97869.28;;;8.19;73.01
27202;BME280;14717;46.924;15.474;2023-03-04T09:06:53;97869.81;;;8.06;71.49
27202;BME280;14717;46.924;15.474;2023-03-04T09:09:18;97854.16;;;8.27;72.17
27202;BME280;14717;46.924;15.474;2023-03-04T09:11:43;97850.47;;;8.56;71.65
27202;BME280;14717;46.924;15.474;2023-03-04T09:14:09;97852.03;;;8.82;71.31
27202;BME280;14717;46.924;15.474;2023-03-04T09:16:34;97844.00;;;8.90;68.62
27202;BME280;14717;46.924;15.474;2023-03-04T09:19:00;97849.75;;;8.93;65.80
27202;BME280;14717;46.924;15.474;2023-03-04T09:21:25;97837.25;;;9.16;65.45
27202;BME280;14717;46.924;15.474;2023-03-04T09:23:50;97843.63;;;9.06;65.33
27202;BME280;14717;46.924;15.474;2023-03-04T09:26:27;97843.59;;;9.16;63.48
27202;BME280;14717;46.924;15.474;2023-03-04T09:28:55;97848.41;;;9.39;63.38
27202;BME280;14717;46.924;15.474;2023-03-04T09:31:22;97836.38;;;9.25;64.40
27202;BME280;14717;46.924;15.474;2023-03-04T09:33:48;97842.81;;;9.49;61.55
27202;BME280;14717;46.924;15.474;2023-03-04T09:36:14;97834.13;;;9.70;63.04
27202;BME280;14717;46.924;15.474;2023-03-04T09:38:40;97826.94;;;9.69;60.42
27202;BME280;14717;46.924;15.474;2023-03-04T09:41:07;97832.66;;;9.77;63.15
27202;BME280;14717;46.924;15.474;2023-03-04T09:43:34;97831.69;;;9.97;62.12
27202;BME280;14717;46.924;15.474;2023-03-04T09:46:03;97824.59;;;10.19;60.81
27202;BME280;14717;46.924;15.474;2023-03-04T09:48:50;97814.25;;;10.29;59.58
27202;BME280;14717;46.924;15.474;2023-03-04T09:54:09;97813.56;;;10.65;60.33
27202;BME280;14717;46.924;15.474;2023-03-04T09:56:39;97810.69;;;10.75;61.01
27202;BME280;14717;46.924;15.474;2023-03-04T10:01:48;97813.50;;;10.94;54.77
27202;BME280;14717;46.924;15.474;2023-03-04T10:06:50;97802.22;;;11.08;54.00
27202;BME280;14717;46.924;15.474;2023-03-04T10:09:33;97796.25;;;11.20;56.01
27202;BME280;14717;46.924;15.474;2023-03-04T10:12:06;97797.38;;;11.19;55.68
27202;BME280;14717;46.924;15.474;2023-03-04T10:14:45;97795.22;;;11.16;56.34
27202;BME280;14717;46.924;15.474;2023-03-04T10:17:22;97782.66;;;11.42;56.01
27202;BME280;14717;46.924;15.474;2023-03-04T10:20:26;97786.09;;;11.70;55.31
27202;BME280;14717;46.924;15.474;2023-03-04T10:22:57;97785.56;;;11.87;55.67
27202;BME280;14717;46.924;15.474;2023-03-04T10:25:26;97774.59;;;11.95;54.25
27202;BME280;14717;46.924;15.474;2023-03-04T10:27:56;97773.63;;;11.86;54.77
27202;BME280;14717;46.924;15.474;2023-03-04T10:30:54;97763.25;;;12.10;55.90
27202;BME280;14717;46.924;15.474;2023-03-04T10:33:25;97765.94;;;12.15;54.89
27202;BME280;14717;46.924;15.474;2023-03-04T10:38:22;97750.13;;;12.15;55.72
27202;BME280;14717;46.924;15.474;2023-03-04T10:40:48;97750.19;;;11.97;54.24
27202;BME280;14717;46.924;15.474;2023-03-04T10:43:18;97745.00;;;12.22;57.20
27202;BME280;14717;46.924;15.474;2023-03-04T10:45:44;97741.81;;;12.29;53.44
27202;BME280;14717;46.924;15.474;2023-03-04T10:48:22;97741.13;;;12.36;53.42
27202;BME280;14717;46.924;15.474;2023-03-04T10:50:48;97734.16;;;12.52;54.07
27202;BME280;14717;46.924;15.474;2023-03-04T10:53:30;97731.47;;;12.74;53.46
27202;BME280;14717;46.924;15.474;2023-03-04T10:55:58;97733.13;;;12.88;53.78
27202;BME280;14717;46.924;15.474;2023-03-04T10:58:23;97730.63;;;13.00;53.49
27202;BME280;14717;46.924;15.474;2023-03-04T11:01:09;97726.72;;;13.01;52.02
27202;BME280;14717;46.924;15.474;2023-03-04T11:03:47;97724.31;;;13.21;52.75
27202;BME280;14717;46.924;15.474;2023-03-04T11:06:19;97715.94;;;13.35;51.21
27202;BME280;14717;46.924;15.474;2023-03-04T11:08:55;97712.13;;;13.44;51.86
27202;BME280;14717;46.924;15.474;2023-03-04T11:11:37;97710.97;;;13.45;48.66
27202;BME280;14717;46.924;15.474;2023-03-04T11:14:18;97712.88;;;13.36;48.29
27202;BME280;14717;46.924;15.474;2023-03-04T11:16:56;97697.88;;;13.24;48.65
27202;BME280;14717;46.924;15.474;2023-03-04T11:19:23;97702.13;;;13.43;50.11
27202;BME280;14717;46.924;15.474;2023-03-04T11:21:52;97695.94;;;13.68;48.11
27202;BME280;14717;46.924;15.474;2023-03-04T11:24:25;97685.16;;;13.66;47.03
27202;BME280;14717;46.924;15.474;2023-03-04T11:27:14;97687.34;;;13.78;47.34
27202;BME280;14717;46.924;15.474;2023-03-04T11:29:42;97686.47;;;13.91;46.79
27202;BME280;14717;46.924;15.474;2023-03-04T11:34:43;97681.09;;;14.24;47.21
27202;BME280;14717;46.924;15.474;2023-03-04T11:37:33;97672.88;;;14.11;47.48
27202;BME280;14717;46.924;15.474;2023-03-04T11:40:07;97674.97;;;14.05;47.54
27202;BME280;14717;46.924;15.474;2023-03-04T11:45:00;97661.50;;;14.29;47.57
27202;BME280;14717;46.924;15.474;2023-03-04T11:50:17;97652.28;;;14.59;45.99
27202;BME280;14717;46.924;15.474;2023-03-04T11:55:40;97653.78;;;14.65;44.65
27202;BME280;14717;46.924;15.474;2023-03-04T12:00:57;97640.50;;;14.53;44.45
27202;BME280;14717;46.924;15.474;2023-03-04T12:11:20;97623.19;;;14.82;44.76
27202;BME280;14717;46.924;15.474;2023-03-04T12:14:01;97619.47;;;14.94;45.15
27202;BME280;14717;46.924;15.474;2023-03-04T12:23:00;97618.81;;;15.14;41.73
27202;BME280;14717;46.924;15.474;2023-03-04T12:33:44;97597.56;;;15.27;41.41
27202;BME280;14717;46.924;15.474;2023-03-04T12:42:13;97579.19;;;15.09;43.27
27202;BME280;14717;46.924;15.474;2023-03-04T12:48:13;97582.66;;;15.23;42.25
27202;BME280;14717;46.924;15.474;2023-03-04T12:56:02;97573.97;;;15.24;41.30
27202;BME280;14717;46.924;15.474;2023-03-04T12:58:30;97558.88;;;15.08;41.53
27202;BME280;14717;46.924;15.474;2023-03-04T13:06:12;97557.00;;;15.71;41.48
27202;BME280;14717;46.924;15.474;2023-03-04T13:16:44;97546.13;;;15.07;41.07
27202;BME280;14717;46.924;15.474;2023-03-04T13:41:10;97528.81;;;15.64;40.37
27202;BME280;14717;46.924;15.474;2023-03-04T13:51:23;97515.44;;;15.49;39.86
27202;BME280;14717;46.924;15.474;2023-03-04T13:54:16;97511.34;;;15.55;40.05
27202;BME280;14717;46.924;15.474;2023-03-04T13:56:47;97510.25;;;15.31;40.09
27202;BME280;14717;46.924;15.474;2023-03-04T13:59:27;97505.38;;;15.74;40.10
27202;BME280;14717;46.924;15.474;2023-03-04T14:04:21;97496.81;;;15.78;39.37
27202;BME280;14717;46.924;15.474;2023-03-04T14:06:48;97499.56;;;15.87;39.24
27202;BME280;14717;46.924;15.474;2023-03-04T14:09:26;97496.88;;;15.70;39.11
27202;BME280;14717;46.924;15.474;2023-03-04T14:11:54;97487.09;;;15.56;39.37
27202;BME280;14717;46.924;15.474;2023-03-04T14:14:29;97492.47;;;15.61;40.44
27202;BME280;14717;46.924;15.474;2023-03-04T14:16:58;97493.66;;;15.60;39.12
27202;BME280;14717;46.924;15.474;2023-03-04T14:19:28;97492.84;;;15.51;39.62
27202;BME280;14717;46.924;15.474;2023-03-04T14:21:55;97483.63;;;15.59;40.16
27202;BME280;14717;46.924;15.474;2023-03-04T14:24:21;97474.16;;;15.60;39.73
27202;BME280;14717;46.924;15.474;2023-03-04T14:26:47;97471.84;;;15.62;39.00
27202;BME280;14717;46.924;15.474;2023-03-04T14:29:28;97472.03;;;15.57;40.04
27202;BME280;14717;46.924;15.474;2023-03-04T14:31:56;97473.31;;;15.68;40.75
27202;BME280;14717;46.924;15.474;2023-03-04T14:34:29;97463.94;;;15.35;39.30
27202;BME280;14717;46.924;15.474;2023-03-04T14:37:03;97466.06;;;15.38;40.18
27202;BME280;14717;46.924;15.474;2023-03-04T14:39:31;97460.59;;;15.50;39.87
27202;BME280;14717;46.924;15.474;2023-03-04T14:42:08;97464.59;;;15.32;40.43
27202;BME280;14717;46.924;15.474;2023-03-04T14:44:41;97463.94;;;15.35;40.14
27202;BME280;14717;46.924;15.474;2023-03-04T14:47:29;97457.88;;;15.33;40.54